Poplar Bluff, MO

1:07 AM CDT on April 27, 2015 (GMT -0500)
Poplar Bluff Municipal | | Change Station
CLOSE
Current Station
Airport
Location: Poplar Bluff,
Elevation: 328 ft
Nearby Weather Stations

Elev 328 ft 36.77 °N, 90.32 °W | Updated 14 minutes ago

Clear
Clear
52 °F
Feels Like 52 °F
N
8
Wind Variable Wind from NNE

Today
High -- | Low -- °F
--% Chance of Precip.
Yesterday
High -- | Low -- °F
Precip. -- in
6:12 AM 7:46 PM
Waxing Gibbous, 62% visible
Pressure 29.97 in
Visibility 10.0 miles
Clouds Clear
Dew Point 39 °F
Humidity 61%
Rainfall 0.00 in
Snow Depth Not available.
UV 0 out of 12
Pollen 9.60 out of 12
Air Quality Not available.
Flu Activity Local Activity
METAR KPOF 270553Z AUTO 02007KT 10SM CLR 11/04 A2996 RMK AO2 SLP147 T01110039 10167 20111 401780111 53008

More Conditions Fewer Conditions

Pressure 29.97 in
Visibility 10.0 miles
Clouds Clear
Dew Point 39 °F
Humidity 61%
Rainfall 0.00 in
Snow Depth Not available.
UV 0 out of 12
Pollen 9.60 out of 12
Air Quality Not available.
Flu Activity Local Activity
METAR KPOF 270553Z AUTO 02007KT 10SM CLR 11/04 A2996 RMK AO2 SLP147 T01110039 10167 20111 401780111 53008

More Conditions Fewer Conditions

10-Day Weather Forecast

Almanac

Astronomy

Apr. 27, 2015 Rise Set
Actual Time
Civil Twilight
Nautical Twilight
Astronomical Twilight
Moon
Length of Visible Light
Length of Day
Tomorrow will be .
, % of the Moon is Illuminated

Today's Extremes

State Highs State Lows

Community

WunderPhotos

Upload Photos

1,817,272 photos uploaded!

WunderBlogs® & News

Nearby

Air Quality

  Air Quality AQ Index Pollutant
Not available.

Snow Depth

Station Depth Elevation

Earthquake Activity

City Distance Mag. Time & Date
Minimum magnitude displayed is 2.5.

Coastal Water Temperatures

Place Temperature

Stations

Nearby Weather Stations

Station Location Temp. Windchill Dew Point Humidity Wind Precip. Elev Updated Type